createdAt,value
2023-03-28T00:03:22.932Z,2.60
2023-03-28T00:08:31.571Z,2.40
2023-03-28T00:13:36.179Z,1.90
2023-03-28T00:18:40.822Z,2.50
2023-03-28T00:23:44.953Z,2.00
2023-03-28T00:28:48.883Z,2.20
2023-03-28T00:33:53.960Z,2.00
2023-03-28T00:39:01.618Z,2.70
2023-03-28T00:44:44.492Z,2.20
2023-03-28T00:49:50.312Z,1.70
2023-03-28T00:54:57.881Z,2.00
2023-03-28T01:00:01.713Z,2.30
2023-03-28T01:05:07.751Z,2.60
2023-03-28T01:10:13.254Z,1.70
2023-03-28T01:15:17.493Z,1.50
2023-03-28T01:21:06.527Z,2.00
2023-03-28T01:26:39.664Z,2.00
2023-03-28T01:31:50.053Z,1.60
2023-03-28T01:37:41.814Z,1.60
2023-03-28T01:43:19.596Z,1.70
2023-03-28T01:48:42.587Z,1.50
2023-03-28T01:53:57.583Z,1.50
2023-03-28T01:59:20.210Z,1.70
2023-03-28T02:05:02.432Z,1.40
2023-03-28T02:10:08.978Z,2.00
2023-03-28T02:15:43.530Z,1.60
2023-03-28T02:21:13.726Z,1.40
2023-03-28T02:26:26.830Z,1.40
2023-03-28T02:31:54.561Z,1.20
2023-03-28T02:37:16.765Z,1.70
2023-03-28T02:42:46.282Z,1.60
2023-03-28T02:48:42.132Z,1.70
2023-03-28T02:53:53.015Z,1.30
2023-03-28T02:59:04.193Z,1.40
2023-03-28T03:04:08.633Z,2.00
2023-03-28T03:09:13.655Z,1.10
2023-03-28T03:14:19.543Z,1.20
2023-03-28T03:19:24.286Z,1.30
2023-03-28T03:24:28.932Z,1.20
2023-03-28T03:29:38.263Z,1.30
2023-03-28T03:34:43.760Z,1.00
2023-03-28T03:39:50.852Z,0.90
2023-03-28T03:44:56.101Z,1.10
2023-03-28T03:50:00.551Z,1.20
2023-03-28T03:55:06.782Z,1.20
2023-03-28T04:00:15.578Z,1.30
2023-03-28T04:05:26.105Z,1.10
2023-03-28T04:10:38.678Z,1.40
2023-03-28T04:15:42.849Z,1.10
2023-03-28T04:21:13.040Z,0.90
2023-03-28T04:26:26.802Z,1.10
2023-03-28T04:31:39.335Z,1.00
2023-03-28T04:37:03.116Z,1.10
2023-03-28T04:42:09.616Z,1.10
2023-03-28T04:47:52.482Z,1.00
2023-03-28T04:52:58.224Z,0.90
2023-03-28T04:58:02.943Z,0.80
2023-03-28T05:03:14.072Z,0.80
2023-03-28T05:08:28.198Z,1.00
2023-03-28T05:13:33.779Z,0.90
2023-03-28T05:18:50.488Z,1.00
2023-03-28T05:23:57.789Z,0.90
2023-03-28T05:29:02.043Z,0.70
2023-03-28T05:34:06.573Z,0.90
2023-03-28T05:39:17.367Z,0.70
2023-03-28T05:44:21.497Z,0.80
2023-03-28T05:49:44.896Z,0.60
2023-03-28T05:54:50.334Z,0.70
2023-03-28T05:59:56.312Z,0.80
2023-03-28T06:05:01.197Z,0.80
2023-03-28T06:10:08.680Z,0.70
2023-03-28T06:15:13.125Z,0.80
2023-03-28T06:20:20.006Z,0.80
2023-03-28T06:25:24.463Z,0.80
2023-03-28T06:30:29.238Z,0.80
2023-03-28T06:35:35.111Z,0.80
2023-03-28T06:40:39.221Z,0.90
2023-03-28T06:45:43.274Z,0.90
2023-03-28T06:50:51.078Z,0.90
2023-03-28T06:55:58.746Z,1.00
2023-03-28T07:01:03.652Z,0.60
2023-03-28T07:06:11.153Z,1.10
2023-03-28T07:11:15.286Z,1.00
2023-03-28T07:16:21.282Z,0.90
2023-03-28T07:21:25.889Z,1.00
2023-03-28T07:26:32.278Z,0.80
2023-03-28T07:31:36.439Z,0.80
2023-03-28T07:36:40.515Z,0.90
2023-03-28T07:41:48.798Z,1.00
2023-03-28T07:46:53.448Z,1.20
2023-03-28T07:51:57.872Z,0.80
2023-03-28T07:57:02.035Z,0.70
2023-03-28T08:02:38.571Z,0.70
2023-03-28T08:07:46.252Z,0.70
2023-03-28T08:12:50.748Z,0.90
2023-03-28T08:17:54.804Z,0.70
2023-03-28T08:22:59.534Z,1.00
2023-03-28T08:28:26.797Z,1.00
2023-03-28T08:33:33.109Z,0.80
2023-03-28T08:38:37.408Z,1.50
2023-03-28T08:43:50.502Z,1.00
2023-03-28T08:48:56.212Z,0.80
2023-03-28T08:54:08.409Z,0.70
2023-03-28T08:59:16.894Z,0.80
2023-03-28T09:04:25.466Z,1.00
2023-03-28T09:09:38.801Z,1.00
2023-03-28T09:15:50.840Z,0.50
2023-03-28T09:21:21.890Z,0.90
2023-03-28T09:26:42.222Z,0.60
2023-03-28T09:31:51.682Z,0.80
2023-03-28T09:37:01.927Z,0.90
2023-03-28T09:42:18.228Z,0.80
2023-03-28T09:47:47.944Z,0.60
2023-03-28T09:52:54.637Z,0.60
2023-03-28T09:58:13.418Z,0.50
2023-03-28T10:03:36.481Z,0.80
2023-03-28T10:08:43.180Z,0.70
2023-03-28T10:14:36.206Z,0.50
2023-03-28T10:19:44.220Z,0.50
2023-03-28T10:24:55.353Z,0.70
2023-03-28T10:30:31.313Z,0.50
2023-03-28T10:35:36.093Z,0.70
2023-03-28T10:40:59.479Z,0.60
2023-03-28T10:46:35.349Z,0.90
2023-03-28T10:52:48.923Z,0.80
2023-03-28T10:58:23.441Z,0.70
2023-03-28T11:03:56.162Z,0.70
2023-03-28T11:09:16.430Z,0.90
2023-03-28T11:15:18.479Z,0.90
2023-03-28T11:20:35.822Z,1.10
2023-03-28T11:26:10.058Z,1.40
2023-03-28T11:31:38.612Z,1.10
2023-03-28T11:37:04.967Z,1.40
2023-03-28T11:42:27.917Z,0.90
2023-03-28T11:47:42.332Z,1.10
2023-03-28T11:53:18.063Z,0.80
2023-03-28T11:58:36.417Z,0.90
2023-03-28T12:03:59.408Z,0.90
2023-03-28T12:09:13.349Z,0.70
2023-03-28T12:14:42.034Z,1.00
2023-03-28T12:19:56.928Z,0.80
2023-03-28T12:25:20.592Z,1.50
2023-03-28T12:30:30.185Z,1.10
2023-03-28T12:35:56.634Z,1.10
2023-03-28T12:41:06.915Z,0.90
2023-03-28T12:46:14.809Z,1.10
2023-03-28T12:51:35.916Z,0.90
2023-03-28T12:56:41.410Z,0.80
2023-03-28T13:01:50.785Z,1.10
2023-03-28T13:07:25.186Z,0.90
2023-03-28T13:12:41.475Z,0.70
2023-03-28T13:18:09.427Z,0.70
2023-03-28T13:23:16.869Z,0.80
2023-03-28T13:28:38.300Z,1.20
2023-03-28T13:33:59.975Z,1.30
2023-03-28T13:44:27.754Z,4.00
2023-03-28T13:49:38.040Z,4.80
2023-03-28T13:54:41.948Z,5.60
2023-03-28T13:59:53.388Z,5.40
2023-03-28T14:05:24.625Z,6.20
2023-03-28T14:10:39.883Z,6.90
2023-03-28T14:15:45.057Z,5.90
2023-03-28T14:20:49.180Z,5.60
2023-03-28T14:25:55.067Z,5.70
2023-03-28T14:30:59.680Z,4.60
2023-03-28T14:36:06.274Z,4.90
2023-03-28T14:41:22.896Z,4.40
2023-03-28T14:46:30.354Z,3.90
2023-03-28T14:51:49.005Z,3.40
2023-03-28T14:56:53.373Z,3.40
2023-03-28T15:02:00.159Z,3.20
2023-03-28T15:07:04.477Z,3.00
2023-03-28T15:12:09.542Z,2.50
2023-03-28T15:17:19.538Z,3.10
2023-03-28T15:22:27.638Z,2.90
2023-03-28T15:27:33.966Z,2.40
2023-03-28T15:32:38.078Z,2.50
2023-03-28T15:37:44.536Z,2.10
2023-03-28T15:42:52.238Z,2.10
2023-03-28T15:47:57.607Z,2.40
2023-03-28T15:53:06.909Z,1.90
2023-03-28T15:58:15.201Z,2.50
2023-03-28T16:03:26.820Z,1.90
2023-03-28T16:08:33.068Z,2.10
2023-03-28T16:13:37.097Z,2.00
2023-03-28T16:19:02.563Z,1.70
2023-03-28T16:24:06.998Z,1.70
2023-03-28T16:29:11.933Z,1.30
2023-03-28T16:34:15.867Z,2.00
2023-03-28T16:39:19.887Z,1.70
2023-03-28T16:44:24.525Z,1.40
2023-03-28T16:49:29.577Z,1.00
2023-03-28T16:54:33.604Z,1.50
2023-03-28T16:59:37.736Z,1.10
2023-03-28T17:04:41.979Z,1.10
2023-03-28T17:09:47.553Z,1.20
2023-03-28T17:14:52.562Z,1.40
2023-03-28T17:19:56.849Z,1.40
2023-03-28T17:25:02.416Z,1.20
2023-03-28T17:30:09.900Z,1.20
2023-03-28T17:35:15.115Z,1.10
2023-03-28T17:40:21.217Z,1.30
2023-03-28T17:45:27.730Z,1.30
2023-03-28T17:50:33.847Z,1.50
2023-03-28T17:55:39.652Z,1.10
2023-03-28T18:00:45.373Z,1.20
2023-03-28T18:06:02.446Z,1.40
2023-03-28T18:11:12.855Z,1.20
2023-03-28T18:16:19.147Z,1.00
2023-03-28T18:21:27.982Z,1.60
2023-03-28T18:26:34.294Z,1.50
2023-03-28T18:31:44.529Z,1.30
2023-03-28T18:36:55.918Z,1.30
2023-03-28T18:42:05.204Z,1.20
2023-03-28T18:48:11.320Z,1.60
2023-03-28T18:54:14.572Z,1.20
2023-03-28T18:59:58.234Z,1.70
2023-03-28T19:05:07.516Z,2.30
2023-03-28T19:10:14.435Z,2.10
2023-03-28T19:15:21.790Z,2.20
2023-03-28T19:20:28.221Z,2.50
2023-03-28T19:25:35.824Z,2.50
2023-03-28T19:30:43.080Z,2.40
2023-03-28T19:35:49.250Z,2.30
2023-03-28T19:41:02.363Z,2.20
2023-03-28T19:46:13.831Z,2.30
2023-03-28T19:51:20.237Z,2.30
2023-03-28T19:56:25.775Z,3.10
2023-03-28T20:01:32.875Z,2.50
2023-03-28T20:06:39.227Z,2.80
2023-03-28T20:11:45.511Z,2.30
2023-03-28T20:16:52.229Z,2.60
2023-03-28T20:21:58.874Z,2.90
2023-03-28T20:27:05.521Z,2.40
2023-03-28T20:32:11.578Z,2.60
2023-03-28T20:37:17.901Z,2.40
2023-03-28T20:42:24.701Z,2.70
2023-03-28T20:47:29.420Z,2.60
2023-03-28T20:52:37.803Z,2.90
2023-03-28T20:57:42.888Z,2.70
2023-03-28T21:02:53.859Z,2.70
2023-03-28T21:07:59.559Z,2.80
2023-03-28T21:13:03.795Z,3.10
2023-03-28T21:18:07.776Z,3.10
2023-03-28T21:23:13.580Z,2.90
2023-03-28T21:28:17.610Z,2.70
2023-03-28T21:33:22.385Z,3.00
2023-03-28T21:38:27.834Z,2.70
2023-03-28T21:43:32.177Z,4.60
2023-03-28T21:48:37.223Z,16.80
2023-03-28T21:53:42.727Z,20.20
2023-03-28T21:58:46.730Z,21.90
2023-03-28T22:03:51.356Z,21.70
2023-03-28T22:08:55.718Z,20.50
2023-03-28T22:14:03.483Z,18.60
2023-03-28T22:19:14.004Z,19.60
2023-03-28T22:24:18.368Z,17.90
2023-03-28T22:29:22.395Z,15.30
2023-03-28T22:34:26.844Z,14.80
2023-03-28T22:39:31.072Z,15.30
2023-03-28T22:44:35.305Z,15.20
2023-03-28T22:49:40.073Z,15.60
2023-03-28T22:54:45.122Z,14.30
2023-03-28T22:59:53.038Z,13.40
2023-03-28T23:04:57.393Z,13.60
2023-03-28T23:10:02.957Z,12.80
2023-03-28T23:15:07.839Z,12.00
2023-03-28T23:20:15.083Z,12.40
2023-03-28T23:25:20.059Z,12.10
2023-03-28T23:30:26.849Z,12.10
2023-03-28T23:35:31.039Z,12.20
2023-03-28T23:40:35.337Z,11.90
2023-03-28T23:45:39.562Z,11.60
2023-03-28T23:50:43.491Z,10.60
2023-03-28T23:55:47.405Z,10.80
